SIA028 WSSS-RCSS
Flight info
| Callsign | SIA028 |
|---|---|
| Flight time | 3h 55m |
| Altitude | 40000 |
| Route | VMR6A VMR M771 DUDIS/K0900F400 M771 DOSUT/N0484F400 M771 DULOP/N0483F410 DCT ENVAR M750 DADON L1 KADLO A1 HLG HLG1E |
| Aircraft | A359/H-SDE2E3GHIJ3J4J5LM1ORWXY/LB1D1 |
Departure
| Time | 2026-05-05 01:04 |
|---|---|
| Airport | Singapore Changi Airport (WSSS) |
Arrival
| Time | 2026-05-05 04:59 |
|---|---|
| Airport | Taipei Songshan International Airport (RCSS) |
| Time | Latitude | Longitude | Altitude | Speed | Heading |
|---|---|---|---|---|---|
| 2026-05-05 00:49 | 1.35277 | 103.98401 | 39 ft | 0 kts | 112° |
| 2026-05-05 00:52 | 1.35280 | 103.98396 | 38 ft | 4 kts | 112° |
| 2026-05-05 00:52 | 1.35290 | 103.98371 | 39 ft | 4 kts | 111° |
| 2026-05-05 00:52 | 1.35300 | 103.98346 | 36 ft | 4 kts | 117° |
| 2026-05-05 00:52 | 1.35313 | 103.98325 | 36 ft | 4 kts | 139° |
| 2026-05-05 00:53 | 1.35330 | 103.98315 | 36 ft | 4 kts | 160° |
| 2026-05-05 00:53 | 1.35355 | 103.98306 | 37 ft | 4 kts | 160° |
| 2026-05-05 00:53 | 1.35381 | 103.98297 | 36 ft | 4 kts | 160° |
| 2026-05-05 00:53 | 1.35406 | 103.98288 | 37 ft | 4 kts | 160° |
| 2026-05-05 00:54 | 1.35427 | 103.98280 | 39 ft | 4 kts | 166° |
| 2026-05-05 00:54 | 1.35452 | 103.98277 | 37 ft | 4 kts | 189° |
| 2026-05-05 00:54 | 1.35477 | 103.98284 | 37 ft | 4 kts | 206° |
| 2026-05-05 00:54 | 1.35500 | 103.98296 | 34 ft | 2 kts | 203° |
| 2026-05-05 00:55 | 1.35502 | 103.98297 | 36 ft | 0 kts | 203° |
| 2026-05-05 00:57 | 1.35481 | 103.98288 | 38 ft | 6 kts | 202° |
| 2026-05-05 00:57 | 1.35421 | 103.98263 | 39 ft | 12 kts | 202° |
| 2026-05-05 00:57 | 1.35327 | 103.98223 | 39 ft | 17 kts | 203° |
| 2026-05-05 00:57 | 1.35204 | 103.98170 | 39 ft | 21 kts | 203° |
| 2026-05-05 00:58 | 1.35061 | 103.98112 | 39 ft | 23 kts | 202° |
| 2026-05-05 00:58 | 1.34902 | 103.98046 | 39 ft | 26 kts | 202° |
| 2026-05-05 00:58 | 1.34738 | 103.97984 | 39 ft | 22 kts | 185° |
| 2026-05-05 00:58 | 1.34663 | 103.98084 | 39 ft | 20 kts | 111° |
| 2026-05-05 00:59 | 1.34610 | 103.98215 | 47 ft | 18 kts | 112° |
| 2026-05-05 00:59 | 1.34569 | 103.98312 | 51 ft | 14 kts | 113° |
| 2026-05-05 00:59 | 1.34527 | 103.98411 | 51 ft | 17 kts | 112° |
| 2026-05-05 00:59 | 1.34465 | 103.98558 | 39 ft | 29 kts | 112° |
| 2026-05-05 01:00 | 1.34385 | 103.98748 | 39 ft | 31 kts | 112° |
| 2026-05-05 01:00 | 1.34243 | 103.98789 | 39 ft | 23 kts | 207° |
| 2026-05-05 01:00 | 1.34091 | 103.98716 | 39 ft | 26 kts | 204° |
| 2026-05-05 01:00 | 1.33922 | 103.98642 | 39 ft | 28 kts | 204° |
| 2026-05-05 01:01 | 1.33736 | 103.98563 | 39 ft | 30 kts | 202° |
| 2026-05-05 01:01 | 1.33537 | 103.98479 | 39 ft | 32 kts | 203° |
| 2026-05-05 01:01 | 1.33324 | 103.98389 | 39 ft | 34 kts | 203° |
| 2026-05-05 01:01 | 1.33103 | 103.98289 | 39 ft | 36 kts | 205° |
| 2026-05-05 01:02 | 1.32989 | 103.98280 | 39 ft | 4 kts | 112° |
| 2026-05-05 01:02 | 1.32973 | 103.98320 | 39 ft | 8 kts | 112° |
| 2026-05-05 01:02 | 1.32946 | 103.98384 | 39 ft | 12 kts | 112° |
| 2026-05-05 01:02 | 1.32910 | 103.98470 | 39 ft | 15 kts | 112° |
| 2026-05-05 01:03 | 1.32943 | 103.98525 | 39 ft | 0 kts | 23° |
| 2026-05-05 01:03 | 1.32999 | 103.98549 | 39 ft | 38 kts | 23° |
| 2026-05-05 01:03 | 1.33499 | 103.98761 | 37 ft | 117 kts | 23° |
| 2026-05-05 01:03 | 1.34463 | 103.99168 | 73 ft | 179 kts | 23° |
| 2026-05-05 01:04 | 1.35606 | 103.99655 | 908 ft | 175 kts | 23° |
| 2026-05-05 01:04 | 1.37924 | 104.00632 | 2375 ft | 204 kts | 23° |
| 2026-05-05 01:04 | 1.39339 | 104.01229 | 2679 ft | 237 kts | 23° |
| 2026-05-05 01:05 | 1.40931 | 104.01901 | 3273 ft | 256 kts | 22° |
| 2026-05-05 01:05 | 1.42592 | 104.02602 | 4140 ft | 262 kts | 22° |
| 2026-05-05 01:05 | 1.44291 | 104.03319 | 5023 ft | 268 kts | 23° |
| 2026-05-05 01:05 | 1.46026 | 104.04052 | 5905 ft | 273 kts | 23° |
| 2026-05-05 01:06 | 1.47818 | 104.04743 | 6756 ft | 279 kts | 16° |
| 2026-05-05 01:06 | 1.49757 | 104.04894 | 7604 ft | 284 kts | 351° |
| 2026-05-05 01:06 | 1.51622 | 104.04229 | 8543 ft | 287 kts | 333° |
| 2026-05-05 01:06 | 1.53371 | 104.03283 | 9507 ft | 292 kts | 330° |
| 2026-05-05 01:07 | 1.55164 | 104.02282 | 10357 ft | 300 kts | 330° |
| 2026-05-05 01:07 | 1.57057 | 104.01235 | 10782 ft | 323 kts | 331° |
| 2026-05-05 01:07 | 1.59096 | 104.00122 | 11125 ft | 344 kts | 332° |
| 2026-05-05 01:07 | 1.61240 | 103.98960 | 11719 ft | 355 kts | 332° |
| 2026-05-05 01:08 | 1.63428 | 103.97776 | 12463 ft | 360 kts | 332° |
| 2026-05-05 01:08 | 1.65649 | 103.96576 | 13216 ft | 365 kts | 332° |
| 2026-05-05 01:08 | 1.67900 | 103.95361 | 13918 ft | 370 kts | 333° |
| 2026-05-05 01:08 | 1.70177 | 103.94132 | 14560 ft | 374 kts | 333° |
| 2026-05-05 01:09 | 1.72483 | 103.92889 | 15217 ft | 378 kts | 333° |
| 2026-05-05 01:09 | 1.74860 | 103.91739 | 15863 ft | 381 kts | 340° |
| 2026-05-05 01:09 | 1.77438 | 103.91087 | 16517 ft | 383 kts | 354° |
| 2026-05-05 01:09 | 1.80073 | 103.90857 | 17151 ft | 386 kts | 358° |
| 2026-05-05 01:10 | 1.82769 | 103.90702 | 17795 ft | 390 kts | 358° |
| 2026-05-05 01:10 | 1.85491 | 103.90545 | 18405 ft | 394 kts | 358° |
| 2026-05-05 01:10 | 1.88246 | 103.90379 | 18957 ft | 398 kts | 358° |
| 2026-05-05 01:10 | 1.91017 | 103.90208 | 19519 ft | 401 kts | 358° |
| 2026-05-05 01:11 | 1.93815 | 103.90033 | 20087 ft | 405 kts | 358° |
| 2026-05-05 01:11 | 1.96636 | 103.89855 | 20667 ft | 408 kts | 358° |
| 2026-05-05 01:11 | 1.99483 | 103.89674 | 21245 ft | 411 kts | 358° |
| 2026-05-05 01:11 | 2.02355 | 103.89492 | 21825 ft | 415 kts | 358° |
| 2026-05-05 01:12 | 2.05250 | 103.89308 | 22392 ft | 419 kts | 358° |
| 2026-05-05 01:12 | 2.08177 | 103.89122 | 22958 ft | 422 kts | 358° |
| 2026-05-05 01:12 | 2.11085 | 103.88937 | 23501 ft | 426 kts | 358° |
| 2026-05-05 01:12 | 2.14063 | 103.88747 | 23949 ft | 430 kts | 358° |
| 2026-05-05 01:13 | 2.17057 | 103.88556 | 24409 ft | 433 kts | 358° |
| 2026-05-05 01:13 | 2.20078 | 103.88364 | 24899 ft | 436 kts | 358° |
| 2026-05-05 01:13 | 2.23122 | 103.88170 | 25418 ft | 440 kts | 358° |
| 2026-05-05 01:13 | 2.26189 | 103.87975 | 25944 ft | 443 kts | 358° |
| 2026-05-05 01:14 | 2.29284 | 103.87778 | 26486 ft | 447 kts | 358° |
| 2026-05-05 01:14 | 2.32393 | 103.87580 | 27018 ft | 451 kts | 358° |
| 2026-05-05 01:14 | 2.35538 | 103.87503 | 27562 ft | 453 kts | 4° |
| 2026-05-05 01:14 | 2.38663 | 103.87941 | 28076 ft | 455 kts | 15° |
| 2026-05-05 01:15 | 2.41646 | 103.89007 | 28605 ft | 456 kts | 27° |
| 2026-05-05 01:15 | 2.44449 | 103.90532 | 29102 ft | 459 kts | 32° |
| 2026-05-05 01:15 | 2.47157 | 103.92169 | 29593 ft | 463 kts | 33° |
| 2026-05-05 01:15 | 2.49887 | 103.93895 | 30076 ft | 466 kts | 34° |
| 2026-05-05 01:16 | 2.52631 | 103.95653 | 30480 ft | 470 kts | 34° |
| 2026-05-05 01:16 | 2.55429 | 103.97440 | 30898 ft | 473 kts | 33° |
| 2026-05-05 01:16 | 2.58187 | 103.99187 | 31322 ft | 476 kts | 33° |
| 2026-05-05 01:16 | 2.60997 | 104.00953 | 31727 ft | 479 kts | 33° |
| 2026-05-05 01:17 | 2.63834 | 104.02726 | 32128 ft | 482 kts | 33° |
| 2026-05-05 01:17 | 2.66690 | 104.04505 | 32531 ft | 485 kts | 33° |
| 2026-05-05 01:17 | 2.69565 | 104.06292 | 32901 ft | 488 kts | 33° |
| 2026-05-05 01:17 | 2.72450 | 104.08085 | 33282 ft | 490 kts | 32° |
| 2026-05-05 01:18 | 2.75359 | 104.09894 | 33646 ft | 493 kts | 32° |
| 2026-05-05 01:18 | 2.78278 | 104.11710 | 33989 ft | 496 kts | 32° |
| 2026-05-05 01:18 | 2.81217 | 104.13539 | 34282 ft | 498 kts | 32° |
| 2026-05-05 01:18 | 2.84162 | 104.15372 | 34600 ft | 500 kts | 33° |
| 2026-05-05 01:19 | 2.87123 | 104.17216 | 34899 ft | 501 kts | 33° |
| 2026-05-05 01:19 | 2.90077 | 104.19056 | 35378 ft | 498 kts | 33° |
| 2026-05-05 01:19 | 2.93014 | 104.20885 | 35844 ft | 496 kts | 33° |
| 2026-05-05 01:19 | 2.95899 | 104.22681 | 36280 ft | 494 kts | 33° |
| 2026-05-05 01:20 | 2.98814 | 104.24497 | 36710 ft | 493 kts | 33° |
| 2026-05-05 01:20 | 3.01720 | 104.26307 | 37118 ft | 492 kts | 33° |
| 2026-05-05 01:20 | 3.04623 | 104.28116 | 37531 ft | 490 kts | 33° |
| 2026-05-05 01:20 | 3.07513 | 104.29923 | 37941 ft | 489 kts | 33° |
| 2026-05-05 01:21 | 3.10382 | 104.31738 | 38347 ft | 488 kts | 33° |
| 2026-05-05 01:21 | 3.13244 | 104.33558 | 38724 ft | 486 kts | 33° |
| 2026-05-05 01:21 | 3.16104 | 104.35374 | 39060 ft | 485 kts | 33° |
| 2026-05-05 01:21 | 3.18963 | 104.37160 | 39373 ft | 483 kts | 33° |
| 2026-05-05 01:22 | 3.21818 | 104.38927 | 39718 ft | 482 kts | 33° |
| 2026-05-05 01:22 | 3.24666 | 104.40685 | 39971 ft | 482 kts | 33° |
| 2026-05-05 01:22 | 3.30359 | 104.44204 | 40031 ft | 479 kts | 33° |
| 2026-05-05 01:23 | 3.36030 | 104.47721 | 40022 ft | 480 kts | 33° |
| 2026-05-05 01:23 | 3.41703 | 104.51244 | 40020 ft | 480 kts | 33° |
| 2026-05-05 01:24 | 3.47377 | 104.54773 | 40018 ft | 480 kts | 33° |
| 2026-05-05 01:24 | 3.53009 | 104.58272 | 40022 ft | 480 kts | 33° |
| 2026-05-05 01:25 | 3.58685 | 104.61798 | 40023 ft | 479 kts | 33° |
| 2026-05-05 01:25 | 3.64365 | 104.65328 | 40022 ft | 479 kts | 33° |
| 2026-05-05 01:26 | 3.70034 | 104.68852 | 40022 ft | 479 kts | 33° |
| 2026-05-05 01:26 | 3.74746 | 104.71782 | 40020 ft | 479 kts | 33° |
| 2026-05-05 01:27 | 3.80416 | 104.75308 | 40025 ft | 479 kts | 33° |
| 2026-05-05 01:27 | 3.86999 | 104.79410 | 39921 ft | 479 kts | 33° |
| 2026-05-05 01:28 | 3.91757 | 104.82369 | 39905 ft | 480 kts | 33° |
| 2026-05-05 01:28 | 3.97391 | 104.85872 | 39905 ft | 480 kts | 33° |
| 2026-05-05 01:29 | 4.03060 | 104.89399 | 39902 ft | 480 kts | 33° |
| 2026-05-05 01:29 | 4.08731 | 104.92930 | 39904 ft | 480 kts | 33° |
| 2026-05-05 01:30 | 4.14397 | 104.96459 | 39905 ft | 480 kts | 33° |
| 2026-05-05 01:30 | 4.20061 | 104.99987 | 39901 ft | 480 kts | 33° |
| 2026-05-05 01:31 | 4.25732 | 105.03522 | 39902 ft | 480 kts | 33° |
| 2026-05-05 01:31 | 4.31404 | 105.07041 | 39903 ft | 480 kts | 33° |
| 2026-05-05 01:32 | 4.37089 | 105.10568 | 39903 ft | 480 kts | 33° |
| 2026-05-05 01:32 | 4.42757 | 105.14089 | 39902 ft | 480 kts | 33° |
| 2026-05-05 01:33 | 4.48435 | 105.17619 | 39902 ft | 480 kts | 33° |
| 2026-05-05 01:33 | 4.54114 | 105.21151 | 39903 ft | 480 kts | 33° |
| 2026-05-05 01:34 | 4.59758 | 105.24661 | 39905 ft | 480 kts | 33° |
| 2026-05-05 01:34 | 4.65433 | 105.28191 | 39902 ft | 480 kts | 33° |
| 2026-05-05 01:35 | 4.71113 | 105.31724 | 39900 ft | 480 kts | 33° |
| 2026-05-05 01:35 | 4.76791 | 105.35257 | 39900 ft | 480 kts | 33° |
| 2026-05-05 01:36 | 4.82468 | 105.38796 | 39905 ft | 480 kts | 33° |
| 2026-05-05 01:36 | 4.88084 | 105.42426 | 39904 ft | 480 kts | 34° |
| 2026-05-05 01:37 | 4.93631 | 105.46070 | 39905 ft | 480 kts | 34° |
| 2026-05-05 01:37 | 4.99224 | 105.49731 | 39905 ft | 480 kts | 34° |
| 2026-05-05 01:38 | 5.04831 | 105.53386 | 39903 ft | 480 kts | 34° |
| 2026-05-05 01:38 | 5.10434 | 105.57034 | 39900 ft | 480 kts | 34° |
| 2026-05-05 01:39 | 5.16040 | 105.60684 | 39902 ft | 480 kts | 34° |
| 2026-05-05 01:39 | 5.21645 | 105.64335 | 39903 ft | 480 kts | 34° |
| 2026-05-05 01:40 | 5.27256 | 105.67991 | 39903 ft | 480 kts | 34° |
| 2026-05-05 01:40 | 5.32863 | 105.71646 | 39905 ft | 480 kts | 34° |
| 2026-05-05 01:41 | 5.38435 | 105.75278 | 39902 ft | 480 kts | 34° |
| 2026-05-05 01:41 | 5.44040 | 105.78933 | 39902 ft | 480 kts | 34° |
| 2026-05-05 01:42 | 5.49657 | 105.82597 | 39899 ft | 480 kts | 34° |
| 2026-05-05 01:42 | 5.55262 | 105.86253 | 39899 ft | 480 kts | 34° |
| 2026-05-05 01:43 | 5.60868 | 105.89912 | 39899 ft | 480 kts | 34° |
| 2026-05-05 01:43 | 5.66430 | 105.93542 | 39900 ft | 480 kts | 34° |
| 2026-05-05 01:44 | 5.72028 | 105.97195 | 39900 ft | 480 kts | 34° |
| 2026-05-05 01:44 | 5.77661 | 106.00874 | 39902 ft | 480 kts | 34° |
| 2026-05-05 01:45 | 5.83230 | 106.04511 | 39900 ft | 480 kts | 34° |
| 2026-05-05 01:45 | 5.88840 | 106.08176 | 39901 ft | 481 kts | 34° |
| 2026-05-05 01:46 | 5.94459 | 106.11848 | 39902 ft | 481 kts | 34° |
| 2026-05-05 01:46 | 6.00031 | 106.15490 | 39900 ft | 481 kts | 34° |
| 2026-05-05 01:47 | 6.05637 | 106.19155 | 39901 ft | 481 kts | 34° |
| 2026-05-05 01:47 | 6.11256 | 106.22829 | 39900 ft | 481 kts | 34° |
| 2026-05-05 01:48 | 6.16875 | 106.26504 | 39898 ft | 481 kts | 34° |
| 2026-05-05 01:48 | 6.22487 | 106.30176 | 39898 ft | 481 kts | 34° |
| 2026-05-05 01:49 | 6.28098 | 106.33848 | 39899 ft | 481 kts | 34° |
| 2026-05-05 01:49 | 6.33681 | 106.37502 | 39899 ft | 481 kts | 34° |
| 2026-05-05 01:50 | 6.39295 | 106.41178 | 39900 ft | 481 kts | 34° |
| 2026-05-05 01:50 | 6.44908 | 106.44854 | 39901 ft | 481 kts | 34° |
| 2026-05-05 01:51 | 6.50522 | 106.48532 | 39899 ft | 481 kts | 34° |
| 2026-05-05 01:51 | 6.56139 | 106.52213 | 39903 ft | 481 kts | 34° |
| 2026-05-05 01:52 | 6.61710 | 106.55864 | 39902 ft | 481 kts | 34° |
| 2026-05-05 01:52 | 6.67305 | 106.59533 | 39900 ft | 480 kts | 34° |
| 2026-05-05 01:53 | 6.72901 | 106.63203 | 39899 ft | 480 kts | 34° |
| 2026-05-05 01:53 | 6.78494 | 106.66872 | 39900 ft | 479 kts | 34° |
| 2026-05-05 01:54 | 6.84080 | 106.70537 | 39903 ft | 479 kts | 34° |
| 2026-05-05 01:54 | 6.89671 | 106.74208 | 39902 ft | 479 kts | 34° |
| 2026-05-05 01:55 | 6.95254 | 106.77874 | 39903 ft | 479 kts | 34° |
| 2026-05-05 01:55 | 7.00827 | 106.81535 | 39903 ft | 478 kts | 34° |
| 2026-05-05 01:56 | 7.06403 | 106.85206 | 39901 ft | 478 kts | 34° |
| 2026-05-05 01:56 | 7.11966 | 106.88864 | 39902 ft | 478 kts | 34° |
| 2026-05-05 01:57 | 7.17528 | 106.92523 | 39899 ft | 477 kts | 34° |
| 2026-05-05 01:57 | 7.23056 | 106.96162 | 39900 ft | 477 kts | 34° |
| 2026-05-05 01:58 | 7.28608 | 106.99818 | 39902 ft | 477 kts | 34° |
| 2026-05-05 01:58 | 7.34159 | 107.03475 | 39904 ft | 476 kts | 34° |
| 2026-05-05 01:59 | 7.39706 | 107.07131 | 39903 ft | 476 kts | 34° |
| 2026-05-05 01:59 | 7.45248 | 107.10784 | 39903 ft | 476 kts | 33° |
| 2026-05-05 02:00 | 7.50790 | 107.14438 | 39902 ft | 475 kts | 33° |
| 2026-05-05 02:00 | 7.56295 | 107.18069 | 39903 ft | 475 kts | 33° |
| 2026-05-05 02:01 | 7.61828 | 107.21719 | 39903 ft | 475 kts | 33° |
| 2026-05-05 02:01 | 7.67350 | 107.25364 | 39902 ft | 474 kts | 33° |
| 2026-05-05 02:02 | 7.72878 | 107.29013 | 39902 ft | 474 kts | 33° |
| 2026-05-05 02:02 | 7.78398 | 107.32658 | 39905 ft | 475 kts | 33° |
| 2026-05-05 02:03 | 7.83936 | 107.36316 | 39904 ft | 475 kts | 33° |
| 2026-05-05 02:03 | 7.89471 | 107.39974 | 39904 ft | 476 kts | 33° |
| 2026-05-05 02:04 | 7.94969 | 107.43608 | 39907 ft | 476 kts | 33° |
| 2026-05-05 02:04 | 8.00544 | 107.47294 | 39906 ft | 476 kts | 33° |
| 2026-05-05 02:05 | 8.06055 | 107.50940 | 39904 ft | 477 kts | 33° |
| 2026-05-05 02:05 | 8.11610 | 107.54616 | 39907 ft | 477 kts | 33° |
| 2026-05-05 02:06 | 8.17162 | 107.58291 | 39909 ft | 477 kts | 33° |
| 2026-05-05 02:06 | 8.22718 | 107.61970 | 39904 ft | 477 kts | 33° |
| 2026-05-05 02:07 | 8.28268 | 107.65646 | 39908 ft | 477 kts | 33° |
| 2026-05-05 02:07 | 8.33799 | 107.69311 | 39907 ft | 477 kts | 33° |
| 2026-05-05 02:08 | 8.39351 | 107.72990 | 39906 ft | 477 kts | 33° |
| 2026-05-05 02:08 | 8.44901 | 107.76670 | 39904 ft | 477 kts | 33° |
| 2026-05-05 02:09 | 8.50450 | 107.80350 | 39908 ft | 477 kts | 33° |
| 2026-05-05 02:09 | 8.55997 | 107.84030 | 39906 ft | 477 kts | 33° |
| 2026-05-05 02:10 | 8.61506 | 107.87687 | 39910 ft | 477 kts | 33° |
| 2026-05-05 02:10 | 8.67052 | 107.91369 | 39907 ft | 476 kts | 33° |
| 2026-05-05 02:11 | 8.72595 | 107.95050 | 39908 ft | 476 kts | 33° |
| 2026-05-05 02:11 | 8.78136 | 107.98732 | 39909 ft | 476 kts | 33° |
| 2026-05-05 02:12 | 8.86409 | 108.04231 | 39909 ft | 476 kts | 33° |
| 2026-05-05 02:13 | 8.91940 | 108.07909 | 39911 ft | 476 kts | 33° |
| 2026-05-05 02:13 | 8.97472 | 108.11589 | 39914 ft | 476 kts | 33° |
| 2026-05-05 02:14 | 9.02068 | 108.14648 | 39913 ft | 476 kts | 33° |
| 2026-05-05 02:14 | 9.07601 | 108.18331 | 39912 ft | 476 kts | 33° |
| 2026-05-05 02:15 | 9.13131 | 108.22014 | 39914 ft | 475 kts | 33° |
| 2026-05-05 02:15 | 9.18663 | 108.25700 | 39916 ft | 475 kts | 33° |
| 2026-05-05 02:16 | 9.24188 | 108.29382 | 39914 ft | 475 kts | 33° |
| 2026-05-05 02:16 | 9.29710 | 108.33064 | 39918 ft | 475 kts | 33° |
| 2026-05-05 02:17 | 9.35239 | 108.36752 | 39916 ft | 476 kts | 33° |
| 2026-05-05 02:17 | 9.40762 | 108.40438 | 39914 ft | 476 kts | 33° |
| 2026-05-05 02:18 | 9.46289 | 108.44127 | 39914 ft | 476 kts | 33° |
| 2026-05-05 02:18 | 9.51777 | 108.47795 | 39916 ft | 476 kts | 33° |
| 2026-05-05 02:19 | 9.57308 | 108.51484 | 39922 ft | 476 kts | 33° |
| 2026-05-05 02:19 | 9.62841 | 108.55176 | 39920 ft | 476 kts | 33° |
| 2026-05-05 02:20 | 9.68372 | 108.58871 | 39919 ft | 477 kts | 33° |
| 2026-05-05 02:20 | 9.73914 | 108.62575 | 39919 ft | 477 kts | 33° |
| 2026-05-05 02:21 | 9.79458 | 108.66282 | 39923 ft | 477 kts | 33° |
| 2026-05-05 02:21 | 9.85002 | 108.69990 | 39922 ft | 478 kts | 33° |
| 2026-05-05 02:22 | 9.90555 | 108.73706 | 39922 ft | 478 kts | 33° |
| 2026-05-05 02:22 | 9.96107 | 108.77423 | 39925 ft | 478 kts | 33° |
| 2026-05-05 02:23 | 10.01672 | 108.81152 | 39926 ft | 478 kts | 33° |
| 2026-05-05 02:23 | 10.07194 | 108.84847 | 39924 ft | 479 kts | 33° |
| 2026-05-05 02:24 | 10.12766 | 108.88575 | 39929 ft | 479 kts | 33° |
| 2026-05-05 02:24 | 10.18337 | 108.92304 | 39929 ft | 480 kts | 33° |
| 2026-05-05 02:25 | 10.23913 | 108.96040 | 39929 ft | 480 kts | 33° |
| 2026-05-05 02:25 | 10.29491 | 108.99779 | 39928 ft | 480 kts | 33° |
| 2026-05-05 02:26 | 10.35059 | 109.03512 | 39929 ft | 480 kts | 33° |
| 2026-05-05 02:26 | 10.40646 | 109.07260 | 39928 ft | 481 kts | 33° |
| 2026-05-05 02:27 | 10.46231 | 109.11008 | 39931 ft | 481 kts | 33° |
| 2026-05-05 02:27 | 10.51816 | 109.14759 | 39931 ft | 482 kts | 33° |
| 2026-05-05 02:28 | 10.57377 | 109.18495 | 39930 ft | 482 kts | 33° |
| 2026-05-05 02:28 | 10.62973 | 109.22256 | 39934 ft | 482 kts | 33° |
| 2026-05-05 02:29 | 10.68575 | 109.26023 | 39930 ft | 483 kts | 33° |
| 2026-05-05 02:29 | 10.74185 | 109.29796 | 39931 ft | 483 kts | 33° |
| 2026-05-05 02:30 | 10.79791 | 109.33569 | 39933 ft | 484 kts | 33° |
| 2026-05-05 02:30 | 10.85412 | 109.37354 | 39933 ft | 484 kts | 33° |
| 2026-05-05 02:31 | 10.91030 | 109.41137 | 39936 ft | 484 kts | 33° |
| 2026-05-05 02:31 | 10.96651 | 109.44925 | 39936 ft | 485 kts | 33° |
| 2026-05-05 02:32 | 11.02274 | 109.48717 | 39934 ft | 485 kts | 33° |
| 2026-05-05 02:32 | 11.07869 | 109.52491 | 39936 ft | 485 kts | 33° |
| 2026-05-05 02:33 | 11.13492 | 109.56282 | 39941 ft | 485 kts | 33° |
| 2026-05-05 02:33 | 11.19167 | 109.60020 | 39940 ft | 485 kts | 32° |
| 2026-05-05 02:34 | 11.24846 | 109.63738 | 39940 ft | 486 kts | 32° |
| 2026-05-05 02:34 | 11.30527 | 109.67473 | 39944 ft | 486 kts | 32° |
| 2026-05-05 02:35 | 11.36220 | 109.71228 | 39939 ft | 487 kts | 32° |
| 2026-05-05 02:35 | 11.41907 | 109.74984 | 39940 ft | 487 kts | 32° |
| 2026-05-05 02:36 | 11.47597 | 109.78743 | 39943 ft | 488 kts | 32° |
| 2026-05-05 02:36 | 11.53287 | 109.82502 | 39943 ft | 488 kts | 32° |
| 2026-05-05 02:37 | 11.59003 | 109.86282 | 39942 ft | 489 kts | 32° |
| 2026-05-05 02:37 | 11.64679 | 109.90038 | 39942 ft | 490 kts | 32° |
| 2026-05-05 02:38 | 11.70409 | 109.93830 | 39942 ft | 491 kts | 32° |
| 2026-05-05 02:38 | 11.76148 | 109.97629 | 39945 ft | 492 kts | 32° |
| 2026-05-05 02:39 | 11.81901 | 110.01441 | 39942 ft | 493 kts | 32° |
| 2026-05-05 02:39 | 11.87649 | 110.05253 | 39943 ft | 493 kts | 32° |
| 2026-05-05 02:40 | 11.93411 | 110.09074 | 39943 ft | 493 kts | 32° |
| 2026-05-05 02:40 | 11.99177 | 110.12901 | 39944 ft | 494 kts | 32° |
| 2026-05-05 02:41 | 12.04947 | 110.16730 | 39941 ft | 495 kts | 32° |
| 2026-05-05 02:41 | 12.10701 | 110.20552 | 39941 ft | 496 kts | 32° |
| 2026-05-05 02:42 | 12.16498 | 110.24403 | 39941 ft | 497 kts | 32° |
| 2026-05-05 02:42 | 12.22299 | 110.28261 | 39939 ft | 497 kts | 32° |
| 2026-05-05 02:43 | 12.28092 | 110.32117 | 39938 ft | 497 kts | 32° |
| 2026-05-05 02:43 | 12.33893 | 110.35978 | 39941 ft | 497 kts | 32° |
| 2026-05-05 02:44 | 12.39676 | 110.39859 | 39941 ft | 496 kts | 32° |
| 2026-05-05 02:44 | 12.45374 | 110.43840 | 39942 ft | 496 kts | 33° |
| 2026-05-05 02:45 | 12.51055 | 110.47841 | 39941 ft | 496 kts | 33° |
| 2026-05-05 02:45 | 12.56703 | 110.51799 | 39942 ft | 495 kts | 33° |
| 2026-05-05 02:46 | 12.62397 | 110.55778 | 39941 ft | 495 kts | 33° |
| 2026-05-05 02:46 | 12.68085 | 110.59750 | 39941 ft | 495 kts | 33° |
| 2026-05-05 02:47 | 12.73769 | 110.63722 | 39940 ft | 494 kts | 33° |
| 2026-05-05 02:47 | 12.79455 | 110.67705 | 39940 ft | 494 kts | 32° |
| 2026-05-05 02:48 | 12.85096 | 110.71648 | 39943 ft | 493 kts | 32° |
| 2026-05-05 02:48 | 12.90760 | 110.75610 | 39942 ft | 493 kts | 32° |
| 2026-05-05 02:49 | 12.96426 | 110.79577 | 39942 ft | 493 kts | 32° |
| 2026-05-05 02:49 | 13.02090 | 110.83546 | 39942 ft | 493 kts | 33° |
| 2026-05-05 02:50 | 13.07764 | 110.87525 | 39943 ft | 494 kts | 33° |
| 2026-05-05 02:50 | 13.13435 | 110.91504 | 39943 ft | 494 kts | 33° |
| 2026-05-05 02:51 | 13.19119 | 110.95494 | 39940 ft | 494 kts | 33° |
| 2026-05-05 02:51 | 13.24799 | 110.99484 | 39942 ft | 494 kts | 33° |
| 2026-05-05 02:52 | 13.30440 | 111.03448 | 39945 ft | 494 kts | 32° |
| 2026-05-05 02:52 | 13.36117 | 111.07441 | 39945 ft | 494 kts | 32° |
| 2026-05-05 02:53 | 13.41793 | 111.11434 | 39943 ft | 494 kts | 32° |
| 2026-05-05 02:53 | 13.47470 | 111.15431 | 39946 ft | 494 kts | 32° |
| 2026-05-05 02:54 | 13.53147 | 111.19430 | 39945 ft | 494 kts | 32° |
| 2026-05-05 02:54 | 13.58822 | 111.23430 | 39944 ft | 494 kts | 32° |
| 2026-05-05 02:55 | 13.64491 | 111.27428 | 39945 ft | 494 kts | 32° |
| 2026-05-05 02:55 | 13.70121 | 111.31401 | 39946 ft | 494 kts | 32° |
| 2026-05-05 02:56 | 13.75792 | 111.35405 | 39944 ft | 494 kts | 32° |
| 2026-05-05 02:56 | 13.81463 | 111.39413 | 39944 ft | 494 kts | 32° |
| 2026-05-05 02:57 | 13.87128 | 111.43418 | 39942 ft | 494 kts | 32° |
| 2026-05-05 02:57 | 13.92798 | 111.47429 | 39946 ft | 494 kts | 32° |
| 2026-05-05 02:58 | 13.97510 | 111.50764 | 39947 ft | 494 kts | 32° |
| 2026-05-05 02:58 | 14.04100 | 111.55415 | 39946 ft | 494 kts | 32° |
| 2026-05-05 02:59 | 14.08850 | 111.58751 | 39947 ft | 493 kts | 32° |
| 2026-05-05 02:59 | 14.14490 | 111.62716 | 39942 ft | 493 kts | 32° |
| 2026-05-05 03:00 | 14.20160 | 111.66709 | 39946 ft | 493 kts | 32° |
| 2026-05-05 03:00 | 14.25827 | 111.70705 | 39951 ft | 493 kts | 32° |
| 2026-05-05 03:01 | 14.31489 | 111.74700 | 39948 ft | 493 kts | 32° |
| 2026-05-05 03:01 | 14.37161 | 111.78704 | 39946 ft | 493 kts | 32° |
| 2026-05-05 03:02 | 14.42829 | 111.82708 | 39948 ft | 493 kts | 32° |
| 2026-05-05 03:02 | 14.48460 | 111.86688 | 39948 ft | 494 kts | 32° |
| 2026-05-05 03:03 | 14.54160 | 111.90720 | 39948 ft | 494 kts | 32° |
| 2026-05-05 03:03 | 14.59787 | 111.94708 | 39946 ft | 494 kts | 32° |
| 2026-05-05 03:04 | 14.65458 | 111.98718 | 39944 ft | 494 kts | 31° |
| 2026-05-05 03:04 | 14.71131 | 112.02729 | 39947 ft | 494 kts | 31° |
| 2026-05-05 03:05 | 14.76823 | 112.06738 | 39951 ft | 495 kts | 31° |
| 2026-05-05 03:05 | 14.82529 | 112.10734 | 39945 ft | 495 kts | 31° |
| 2026-05-05 03:06 | 14.88232 | 112.14736 | 39953 ft | 496 kts | 31° |
| 2026-05-05 03:06 | 14.93937 | 112.18748 | 39947 ft | 496 kts | 31° |
| 2026-05-05 03:07 | 14.99656 | 112.22775 | 39947 ft | 497 kts | 31° |
| 2026-05-05 03:07 | 15.05339 | 112.26779 | 39946 ft | 497 kts | 31° |
| 2026-05-05 03:08 | 15.11061 | 112.30813 | 39950 ft | 498 kts | 31° |
| 2026-05-05 03:08 | 15.16792 | 112.34855 | 39948 ft | 498 kts | 31° |
| 2026-05-05 03:09 | 15.22521 | 112.38899 | 39954 ft | 499 kts | 31° |
| 2026-05-05 03:09 | 15.28270 | 112.42960 | 39945 ft | 499 kts | 31° |
| 2026-05-05 03:10 | 15.33983 | 112.46998 | 39944 ft | 499 kts | 31° |
| 2026-05-05 03:10 | 15.39724 | 112.51059 | 39945 ft | 500 kts | 31° |
| 2026-05-05 03:11 | 15.45474 | 112.55128 | 39944 ft | 500 kts | 31° |
| 2026-05-05 03:11 | 15.51232 | 112.59207 | 39946 ft | 500 kts | 31° |
| 2026-05-05 03:12 | 15.56976 | 112.63278 | 39947 ft | 500 kts | 31° |
| 2026-05-05 03:12 | 15.62727 | 112.67357 | 39950 ft | 501 kts | 31° |
| 2026-05-05 03:13 | 15.68477 | 112.71438 | 39946 ft | 501 kts | 31° |
| 2026-05-05 03:13 | 15.74226 | 112.75521 | 39947 ft | 501 kts | 31° |
| 2026-05-05 03:14 | 15.79984 | 112.79613 | 39948 ft | 501 kts | 31° |
| 2026-05-05 03:14 | 15.85741 | 112.83707 | 39947 ft | 501 kts | 31° |
| 2026-05-05 03:15 | 15.91498 | 112.87805 | 39948 ft | 501 kts | 31° |
| 2026-05-05 03:15 | 15.97258 | 112.91907 | 39948 ft | 501 kts | 31° |
| 2026-05-05 03:16 | 16.02983 | 112.95988 | 39948 ft | 502 kts | 31° |
| 2026-05-05 03:16 | 16.08747 | 113.00099 | 39950 ft | 502 kts | 31° |
| 2026-05-05 03:17 | 16.14502 | 113.04206 | 39947 ft | 502 kts | 31° |
| 2026-05-05 03:17 | 16.20268 | 113.08325 | 39948 ft | 502 kts | 31° |
| 2026-05-05 03:18 | 16.26024 | 113.12439 | 39949 ft | 502 kts | 31° |
| 2026-05-05 03:18 | 16.31785 | 113.16560 | 39952 ft | 502 kts | 31° |
| 2026-05-05 03:19 | 16.40427 | 113.22747 | 39949 ft | 502 kts | 31° |
| 2026-05-05 03:19 | 16.46192 | 113.26878 | 39950 ft | 502 kts | 31° |
| 2026-05-05 03:20 | 16.51952 | 113.31009 | 39951 ft | 502 kts | 31° |
| 2026-05-05 03:20 | 16.57675 | 113.35116 | 39950 ft | 502 kts | 31° |
| 2026-05-05 03:21 | 16.63434 | 113.39252 | 39946 ft | 502 kts | 31° |
| 2026-05-05 03:21 | 16.69198 | 113.43395 | 39948 ft | 502 kts | 31° |
| 2026-05-05 03:22 | 16.74950 | 113.47532 | 39952 ft | 503 kts | 31° |
| 2026-05-05 03:22 | 16.80711 | 113.51678 | 39951 ft | 503 kts | 31° |
| 2026-05-05 03:23 | 16.86438 | 113.55804 | 39947 ft | 503 kts | 31° |
| 2026-05-05 03:23 | 16.92197 | 113.59955 | 39948 ft | 503 kts | 31° |
| 2026-05-05 03:24 | 16.97970 | 113.64121 | 39949 ft | 503 kts | 31° |
| 2026-05-05 03:24 | 17.03739 | 113.68286 | 39951 ft | 503 kts | 31° |
| 2026-05-05 03:25 | 17.09520 | 113.72430 | 39951 ft | 503 kts | 31° |
| 2026-05-05 03:25 | 17.15274 | 113.76512 | 39949 ft | 503 kts | 31° |
| 2026-05-05 03:26 | 17.21075 | 113.80634 | 39952 ft | 503 kts | 31° |
| 2026-05-05 03:26 | 17.26867 | 113.84764 | 39955 ft | 504 kts | 31° |
| 2026-05-05 03:27 | 17.32654 | 113.88897 | 39951 ft | 504 kts | 31° |
| 2026-05-05 03:27 | 17.38450 | 113.93040 | 39954 ft | 504 kts | 31° |
| 2026-05-05 03:28 | 17.44242 | 113.97184 | 39953 ft | 504 kts | 31° |
| 2026-05-05 03:28 | 17.50029 | 114.01326 | 39950 ft | 504 kts | 31° |
| 2026-05-05 03:29 | 17.55818 | 114.05473 | 39952 ft | 504 kts | 31° |
| 2026-05-05 03:29 | 17.61605 | 114.09622 | 39951 ft | 504 kts | 31° |
| 2026-05-05 03:30 | 17.67358 | 114.13750 | 39955 ft | 504 kts | 31° |
| 2026-05-05 03:30 | 17.73145 | 114.17905 | 39957 ft | 504 kts | 31° |
| 2026-05-05 03:31 | 17.78936 | 114.22067 | 39957 ft | 504 kts | 31° |
| 2026-05-05 03:31 | 17.84727 | 114.26232 | 39956 ft | 504 kts | 31° |
| 2026-05-05 03:32 | 17.90479 | 114.30372 | 39961 ft | 504 kts | 31° |
| 2026-05-05 03:32 | 17.96265 | 114.34540 | 39957 ft | 504 kts | 31° |
| 2026-05-05 03:33 | 18.02053 | 114.38713 | 39955 ft | 505 kts | 31° |
| 2026-05-05 03:33 | 18.07850 | 114.42896 | 39957 ft | 505 kts | 30° |
| 2026-05-05 03:34 | 18.13650 | 114.47084 | 39960 ft | 505 kts | 30° |
| 2026-05-05 03:34 | 18.19444 | 114.51272 | 39959 ft | 505 kts | 30° |
| 2026-05-05 03:35 | 18.25243 | 114.55474 | 40229 ft | 507 kts | 31° |
| 2026-05-05 03:35 | 18.28112 | 114.57626 | 40560 ft | 506 kts | 32° |
| 2026-05-05 03:35 | 18.30956 | 114.59812 | 40867 ft | 506 kts | 33° |
| 2026-05-05 03:36 | 18.36616 | 114.64199 | 40963 ft | 505 kts | 33° |
| 2026-05-05 03:36 | 18.42249 | 114.68547 | 40961 ft | 505 kts | 32° |
| 2026-05-05 03:37 | 18.47930 | 114.72909 | 40958 ft | 505 kts | 32° |
| 2026-05-05 03:37 | 18.53621 | 114.77275 | 40959 ft | 506 kts | 32° |
| 2026-05-05 03:38 | 18.59309 | 114.81641 | 40960 ft | 506 kts | 32° |
| 2026-05-05 03:38 | 18.65005 | 114.86019 | 40958 ft | 506 kts | 32° |
| 2026-05-05 03:39 | 18.70697 | 114.90399 | 40962 ft | 506 kts | 32° |
| 2026-05-05 03:39 | 18.76397 | 114.94788 | 40963 ft | 506 kts | 32° |
| 2026-05-05 03:40 | 18.82056 | 114.99149 | 40964 ft | 507 kts | 32° |
| 2026-05-05 03:40 | 18.87754 | 115.03544 | 40965 ft | 507 kts | 32° |
| 2026-05-05 03:41 | 18.93446 | 115.07938 | 40964 ft | 507 kts | 32° |
| 2026-05-05 03:41 | 18.99140 | 115.12338 | 40964 ft | 507 kts | 32° |
| 2026-05-05 03:42 | 19.04834 | 115.16742 | 40964 ft | 507 kts | 32° |
| 2026-05-05 03:42 | 19.10521 | 115.21144 | 40963 ft | 507 kts | 32° |
| 2026-05-05 03:43 | 19.15249 | 115.24807 | 40966 ft | 507 kts | 33° |
| 2026-05-05 03:43 | 19.20938 | 115.29217 | 40969 ft | 507 kts | 33° |
| 2026-05-05 03:44 | 19.27560 | 115.34357 | 40967 ft | 507 kts | 33° |
| 2026-05-05 03:44 | 19.32287 | 115.38028 | 40966 ft | 507 kts | 33° |
| 2026-05-05 03:45 | 19.37973 | 115.42448 | 40966 ft | 507 kts | 33° |
| 2026-05-05 03:45 | 19.43655 | 115.46869 | 40970 ft | 507 kts | 33° |
| 2026-05-05 03:46 | 19.49345 | 115.51299 | 40966 ft | 507 kts | 33° |
| 2026-05-05 03:46 | 19.55033 | 115.55733 | 40971 ft | 507 kts | 33° |
| 2026-05-05 03:47 | 19.60723 | 115.60172 | 40969 ft | 507 kts | 33° |
| 2026-05-05 03:47 | 19.66405 | 115.64608 | 40977 ft | 507 kts | 33° |
| 2026-05-05 03:48 | 19.72053 | 115.69023 | 40974 ft | 507 kts | 33° |
| 2026-05-05 03:48 | 19.77734 | 115.73467 | 40975 ft | 507 kts | 33° |
| 2026-05-05 03:49 | 19.83410 | 115.77911 | 40974 ft | 507 kts | 33° |
| 2026-05-05 03:49 | 19.89102 | 115.82371 | 40977 ft | 507 kts | 33° |
| 2026-05-05 03:50 | 19.94774 | 115.86821 | 40978 ft | 506 kts | 33° |
| 2026-05-05 03:50 | 20.00406 | 115.91242 | 40981 ft | 506 kts | 33° |
| 2026-05-05 03:51 | 20.06066 | 115.95689 | 40982 ft | 506 kts | 33° |
| 2026-05-05 03:51 | 20.11719 | 116.00136 | 40980 ft | 505 kts | 33° |
| 2026-05-05 03:52 | 20.17376 | 116.04589 | 40983 ft | 505 kts | 33° |
| 2026-05-05 03:52 | 20.23025 | 116.09040 | 40982 ft | 505 kts | 33° |
| 2026-05-05 03:53 | 20.28675 | 116.13496 | 40984 ft | 505 kts | 33° |
| 2026-05-05 03:53 | 20.34317 | 116.17950 | 40988 ft | 505 kts | 33° |
| 2026-05-05 03:54 | 20.39962 | 116.22411 | 40986 ft | 505 kts | 33° |
| 2026-05-05 03:54 | 20.45611 | 116.26878 | 40989 ft | 505 kts | 33° |
| 2026-05-05 03:55 | 20.51212 | 116.31312 | 40987 ft | 505 kts | 33° |
| 2026-05-05 03:55 | 20.56865 | 116.35791 | 40990 ft | 505 kts | 33° |
| 2026-05-05 03:56 | 20.62515 | 116.40272 | 40994 ft | 506 kts | 33° |
| 2026-05-05 03:56 | 20.68168 | 116.44761 | 40995 ft | 506 kts | 33° |
| 2026-05-05 03:57 | 20.73823 | 116.49254 | 40995 ft | 507 kts | 33° |
| 2026-05-05 03:57 | 20.79479 | 116.53752 | 40997 ft | 507 kts | 33° |
| 2026-05-05 03:58 | 20.85142 | 116.58261 | 40995 ft | 507 kts | 33° |
| 2026-05-05 03:58 | 20.90806 | 116.62775 | 40997 ft | 508 kts | 33° |
| 2026-05-05 03:59 | 20.96476 | 116.67298 | 40996 ft | 508 kts | 33° |
| 2026-05-05 03:59 | 21.02118 | 116.71802 | 40996 ft | 509 kts | 33° |
| 2026-05-05 04:00 | 21.07793 | 116.76338 | 40998 ft | 509 kts | 33° |
| 2026-05-05 04:00 | 21.13469 | 116.80879 | 41003 ft | 509 kts | 33° |
| 2026-05-05 04:01 | 21.19157 | 116.85434 | 40998 ft | 510 kts | 33° |
| 2026-05-05 04:01 | 21.24846 | 116.89994 | 41000 ft | 510 kts | 33° |
| 2026-05-05 04:02 | 21.30492 | 116.94525 | 41000 ft | 511 kts | 33° |
| 2026-05-05 04:02 | 21.36185 | 116.99097 | 41005 ft | 511 kts | 33° |
| 2026-05-05 04:03 | 21.41883 | 117.03678 | 41003 ft | 512 kts | 33° |
| 2026-05-05 04:03 | 21.47583 | 117.08265 | 41006 ft | 512 kts | 33° |
| 2026-05-05 04:04 | 21.53292 | 117.12864 | 41008 ft | 513 kts | 33° |
| 2026-05-05 04:04 | 21.59005 | 117.17470 | 41011 ft | 514 kts | 33° |
| 2026-05-05 04:05 | 21.64723 | 117.22086 | 41009 ft | 514 kts | 33° |
| 2026-05-05 04:05 | 21.70440 | 117.26706 | 41011 ft | 514 kts | 33° |
| 2026-05-05 04:06 | 21.76157 | 117.31330 | 41017 ft | 514 kts | 33° |
| 2026-05-05 04:06 | 21.81872 | 117.35958 | 41020 ft | 514 kts | 33° |
| 2026-05-05 04:07 | 21.87598 | 117.40598 | 41021 ft | 515 kts | 33° |
| 2026-05-05 04:07 | 21.93325 | 117.45245 | 41013 ft | 515 kts | 33° |
| 2026-05-05 04:08 | 21.98760 | 117.50229 | 41013 ft | 522 kts | 44° |
| 2026-05-05 04:08 | 22.03017 | 117.56615 | 41015 ft | 526 kts | 54° |
| 2026-05-05 04:09 | 22.06862 | 117.63351 | 41017 ft | 528 kts | 56° |
| 2026-05-05 04:09 | 22.10646 | 117.70135 | 41018 ft | 528 kts | 56° |
| 2026-05-05 04:10 | 22.14458 | 117.76924 | 41024 ft | 529 kts | 56° |
| 2026-05-05 04:10 | 22.18283 | 117.83696 | 41017 ft | 529 kts | 56° |
| 2026-05-05 04:11 | 22.22112 | 117.90469 | 41020 ft | 529 kts | 56° |
| 2026-05-05 04:11 | 22.25994 | 117.97208 | 41023 ft | 527 kts | 51° |
| 2026-05-05 04:12 | 22.31001 | 118.02866 | 41024 ft | 517 kts | 34° |
| 2026-05-05 04:12 | 22.36726 | 118.07571 | 41022 ft | 516 kts | 31° |
| 2026-05-05 04:13 | 22.42512 | 118.12090 | 41025 ft | 516 kts | 31° |
| 2026-05-05 04:13 | 22.48347 | 118.16654 | 41027 ft | 517 kts | 31° |
| 2026-05-05 04:14 | 22.54158 | 118.21242 | 41028 ft | 517 kts | 31° |
| 2026-05-05 04:14 | 22.59971 | 118.25854 | 41027 ft | 518 kts | 31° |
| 2026-05-05 04:15 | 22.65747 | 118.30445 | 41027 ft | 518 kts | 31° |
| 2026-05-05 04:15 | 22.71553 | 118.35063 | 41032 ft | 518 kts | 31° |
| 2026-05-05 04:16 | 22.77372 | 118.39695 | 41035 ft | 519 kts | 31° |
| 2026-05-05 04:16 | 22.83193 | 118.44334 | 41034 ft | 519 kts | 31° |
| 2026-05-05 04:17 | 22.89011 | 118.48975 | 41035 ft | 519 kts | 31° |
| 2026-05-05 04:17 | 22.94632 | 118.53858 | 41040 ft | 526 kts | 41° |
| 2026-05-05 04:18 | 22.99132 | 118.60187 | 41038 ft | 532 kts | 53° |
| 2026-05-05 04:18 | 23.03159 | 118.66951 | 41038 ft | 534 kts | 54° |
| 2026-05-05 04:19 | 23.07122 | 118.73791 | 41036 ft | 535 kts | 54° |
| 2026-05-05 04:19 | 23.11101 | 118.80617 | 41041 ft | 535 kts | 54° |
| 2026-05-05 04:20 | 23.15098 | 118.87435 | 41037 ft | 535 kts | 54° |
| 2026-05-05 04:20 | 23.19107 | 118.94264 | 41040 ft | 536 kts | 54° |
| 2026-05-05 04:21 | 23.23116 | 119.01104 | 41037 ft | 536 kts | 54° |
| 2026-05-05 04:21 | 23.27095 | 119.07902 | 41032 ft | 536 kts | 54° |
| 2026-05-05 04:22 | 23.31093 | 119.14746 | 41029 ft | 536 kts | 54° |
| 2026-05-05 04:22 | 23.35095 | 119.21605 | 41035 ft | 537 kts | 54° |
| 2026-05-05 04:23 | 23.39096 | 119.28470 | 41035 ft | 537 kts | 54° |
| 2026-05-05 04:23 | 23.43082 | 119.35321 | 40714 ft | 536 kts | 54° |
| 2026-05-05 04:24 | 23.45083 | 119.38763 | 40471 ft | 538 kts | 54° |
| 2026-05-05 04:24 | 23.47086 | 119.42209 | 40232 ft | 540 kts | 54° |
| 2026-05-05 04:24 | 23.49099 | 119.45675 | 39996 ft | 541 kts | 54° |
| 2026-05-05 04:25 | 23.53130 | 119.52626 | 39529 ft | 543 kts | 54° |
| 2026-05-05 04:25 | 23.55151 | 119.56114 | 39308 ft | 545 kts | 54° |
| 2026-05-05 04:25 | 23.57176 | 119.59613 | 39081 ft | 546 kts | 54° |
| 2026-05-05 04:25 | 23.59291 | 119.63043 | 38773 ft | 541 kts | 48° |
| 2026-05-05 04:26 | 23.61723 | 119.66130 | 38129 ft | 535 kts | 43° |
| 2026-05-05 04:26 | 23.64260 | 119.69089 | 37465 ft | 533 kts | 41° |
| 2026-05-05 04:26 | 23.66833 | 119.71988 | 36792 ft | 531 kts | 41° |
| 2026-05-05 04:26 | 23.69395 | 119.74828 | 36114 ft | 531 kts | 41° |
| 2026-05-05 04:27 | 23.71995 | 119.77702 | 35408 ft | 532 kts | 41° |
| 2026-05-05 04:27 | 23.74599 | 119.80585 | 34621 ft | 535 kts | 41° |
| 2026-05-05 04:27 | 23.77219 | 119.83499 | 33754 ft | 539 kts | 41° |
| 2026-05-05 04:27 | 23.79849 | 119.86438 | 32856 ft | 541 kts | 41° |
| 2026-05-05 04:28 | 23.82482 | 119.89392 | 31978 ft | 543 kts | 41° |
| 2026-05-05 04:28 | 23.85097 | 119.92332 | 31141 ft | 545 kts | 41° |
| 2026-05-05 04:28 | 23.87727 | 119.95294 | 30567 ft | 539 kts | 41° |
| 2026-05-05 04:28 | 23.90325 | 119.98224 | 29941 ft | 535 kts | 41° |
| 2026-05-05 04:29 | 23.92038 | 120.00155 | 29514 ft | 532 kts | 41° |
| 2026-05-05 04:29 | 23.94597 | 120.03038 | 28888 ft | 526 kts | 41° |
| 2026-05-05 04:29 | 23.97130 | 120.05892 | 28303 ft | 520 kts | 41° |
| 2026-05-05 04:29 | 23.99635 | 120.08715 | 27715 ft | 514 kts | 42° |
| 2026-05-05 04:30 | 24.02113 | 120.11509 | 27118 ft | 509 kts | 42° |
| 2026-05-05 04:30 | 24.04564 | 120.14274 | 26536 ft | 503 kts | 42° |
| 2026-05-05 04:30 | 24.06995 | 120.17017 | 25964 ft | 499 kts | 42° |
| 2026-05-05 04:30 | 24.10176 | 120.20613 | 25201 ft | 493 kts | 43° |
| 2026-05-05 04:31 | 24.11778 | 120.22425 | 24815 ft | 490 kts | 43° |
| 2026-05-05 04:31 | 24.14135 | 120.25092 | 24235 ft | 485 kts | 43° |
| 2026-05-05 04:31 | 24.16476 | 120.27742 | 23675 ft | 481 kts | 43° |
| 2026-05-05 04:31 | 24.18763 | 120.30334 | 23054 ft | 477 kts | 43° |
| 2026-05-05 04:32 | 24.21056 | 120.32936 | 22455 ft | 471 kts | 43° |
| 2026-05-05 04:32 | 24.23313 | 120.35500 | 21886 ft | 465 kts | 43° |
| 2026-05-05 04:32 | 24.25541 | 120.38039 | 21327 ft | 459 kts | 43° |
| 2026-05-05 04:32 | 24.27751 | 120.40551 | 20752 ft | 454 kts | 43° |
| 2026-05-05 04:33 | 24.29939 | 120.43034 | 20178 ft | 450 kts | 43° |
| 2026-05-05 04:33 | 24.32109 | 120.45498 | 19613 ft | 447 kts | 43° |
| 2026-05-05 04:33 | 24.34257 | 120.47940 | 19046 ft | 443 kts | 43° |
| 2026-05-05 04:33 | 24.36388 | 120.50364 | 18480 ft | 439 kts | 43° |
| 2026-05-05 04:34 | 24.38497 | 120.52764 | 17833 ft | 435 kts | 43° |
| 2026-05-05 04:34 | 24.40562 | 120.55115 | 17278 ft | 429 kts | 43° |
| 2026-05-05 04:34 | 24.42622 | 120.57460 | 16714 ft | 424 kts | 43° |
| 2026-05-05 04:34 | 24.44655 | 120.59778 | 16143 ft | 419 kts | 43° |
| 2026-05-05 04:35 | 24.46661 | 120.62066 | 15599 ft | 413 kts | 43° |
| 2026-05-05 04:35 | 24.48647 | 120.64331 | 15046 ft | 409 kts | 43° |
| 2026-05-05 04:35 | 24.50611 | 120.66573 | 14488 ft | 406 kts | 43° |
| 2026-05-05 04:35 | 24.52558 | 120.68795 | 13964 ft | 402 kts | 43° |
| 2026-05-05 04:36 | 24.54491 | 120.71003 | 13373 ft | 398 kts | 44° |
| 2026-05-05 04:36 | 24.56403 | 120.73188 | 12806 ft | 394 kts | 44° |
| 2026-05-05 04:36 | 24.58261 | 120.75391 | 12263 ft | 391 kts | 46° |
| 2026-05-05 04:36 | 24.60082 | 120.77602 | 11714 ft | 387 kts | 46° |
| 2026-05-05 04:37 | 24.61877 | 120.79780 | 11270 ft | 381 kts | 46° |
| 2026-05-05 04:37 | 24.63621 | 120.81892 | 11145 ft | 363 kts | 46° |
| 2026-05-05 04:37 | 24.65259 | 120.83875 | 11030 ft | 346 kts | 46° |
| 2026-05-05 04:37 | 24.66841 | 120.85788 | 10900 ft | 331 kts | 46° |
| 2026-05-05 04:38 | 24.68362 | 120.87627 | 10738 ft | 318 kts | 46° |
| 2026-05-05 04:38 | 24.69825 | 120.89395 | 10599 ft | 307 kts | 46° |
| 2026-05-05 04:38 | 24.71259 | 120.91128 | 10308 ft | 306 kts | 46° |
| 2026-05-05 04:38 | 24.72709 | 120.92879 | 9968 ft | 313 kts | 46° |
| 2026-05-05 04:39 | 24.74194 | 120.94672 | 9590 ft | 318 kts | 47° |
| 2026-05-05 04:39 | 24.75686 | 120.96477 | 9343 ft | 320 kts | 47° |
| 2026-05-05 04:39 | 24.77181 | 120.98286 | 9005 ft | 318 kts | 47° |
| 2026-05-05 04:39 | 24.78657 | 121.00070 | 8615 ft | 314 kts | 47° |
| 2026-05-05 04:40 | 24.80125 | 121.01847 | 8290 ft | 312 kts | 47° |
| 2026-05-05 04:40 | 24.81580 | 121.03610 | 7997 ft | 310 kts | 46° |
| 2026-05-05 04:40 | 24.83030 | 121.05369 | 7846 ft | 309 kts | 46° |
| 2026-05-05 04:40 | 24.84467 | 121.07112 | 7838 ft | 307 kts | 46° |
| 2026-05-05 04:41 | 24.85914 | 121.08857 | 7675 ft | 309 kts | 47° |
| 2026-05-05 04:41 | 24.87350 | 121.10598 | 7282 ft | 306 kts | 47° |
| 2026-05-05 04:41 | 24.88783 | 121.12338 | 6838 ft | 306 kts | 47° |
| 2026-05-05 04:41 | 24.90205 | 121.14066 | 6462 ft | 302 kts | 47° |
| 2026-05-05 04:42 | 24.91592 | 121.15751 | 6063 ft | 299 kts | 47° |
| 2026-05-05 04:42 | 24.92980 | 121.17438 | 5647 ft | 295 kts | 47° |
| 2026-05-05 04:42 | 24.94350 | 121.19102 | 5300 ft | 289 kts | 47° |
| 2026-05-05 04:42 | 24.95674 | 121.20712 | 5136 ft | 277 kts | 47° |
| 2026-05-05 04:43 | 24.96959 | 121.22233 | 4991 ft | 265 kts | 45° |
| 2026-05-05 04:43 | 24.98207 | 121.23674 | 4887 ft | 254 kts | 45° |
| 2026-05-05 04:43 | 24.99402 | 121.25059 | 4804 ft | 244 kts | 45° |
| 2026-05-05 04:43 | 25.00528 | 121.26365 | 4634 ft | 226 kts | 45° |
| 2026-05-05 04:44 | 25.01577 | 121.27584 | 4390 ft | 214 kts | 46° |
| 2026-05-05 04:44 | 25.02590 | 121.28763 | 4146 ft | 209 kts | 46° |
| 2026-05-05 04:44 | 25.03571 | 121.29908 | 4044 ft | 201 kts | 46° |
| 2026-05-05 04:44 | 25.04519 | 121.31015 | 3877 ft | 197 kts | 46° |
| 2026-05-05 04:45 | 25.05458 | 121.32110 | 3692 ft | 195 kts | 46° |
| 2026-05-05 04:45 | 25.06389 | 121.33195 | 3494 ft | 193 kts | 47° |
| 2026-05-05 04:45 | 25.07254 | 121.34318 | 3275 ft | 192 kts | 58° |
| 2026-05-05 04:45 | 25.07648 | 121.35672 | 3198 ft | 180 kts | 89° |
| 2026-05-05 04:46 | 25.07632 | 121.36982 | 3180 ft | 164 kts | 96° |
| 2026-05-05 04:46 | 25.07555 | 121.38214 | 2933 ft | 165 kts | 95° |
| 2026-05-05 04:46 | 25.07511 | 121.39504 | 2610 ft | 170 kts | 94° |
| 2026-05-05 04:46 | 25.07470 | 121.40798 | 2363 ft | 167 kts | 94° |
| 2026-05-05 04:47 | 25.07425 | 121.42046 | 2145 ft | 157 kts | 93° |
| 2026-05-05 04:47 | 25.07382 | 121.43215 | 1947 ft | 148 kts | 92° |
| 2026-05-05 04:47 | 25.07344 | 121.44327 | 1732 ft | 140 kts | 92° |
| 2026-05-05 04:47 | 25.07307 | 121.45355 | 1574 ft | 130 kts | 92° |
| 2026-05-05 04:48 | 25.07273 | 121.46323 | 1404 ft | 123 kts | 92° |
| 2026-05-05 04:48 | 25.07240 | 121.47259 | 1229 ft | 122 kts | 91° |
| 2026-05-05 04:48 | 25.07208 | 121.48210 | 1023 ft | 127 kts | 93° |
| 2026-05-05 04:48 | 25.07174 | 121.49157 | 898 ft | 122 kts | 92° |
| 2026-05-05 04:49 | 25.07141 | 121.50109 | 749 ft | 125 kts | 92° |
| 2026-05-05 04:49 | 25.07109 | 121.51015 | 595 ft | 122 kts | 93° |
| 2026-05-05 04:49 | 25.07075 | 121.51984 | 422 ft | 121 kts | 94° |
| 2026-05-05 04:49 | 25.07041 | 121.52917 | 287 ft | 125 kts | 92° |
| 2026-05-05 04:50 | 25.07007 | 121.53909 | 106 ft | 127 kts | 94° |
| 2026-05-05 04:50 | 25.06975 | 121.54837 | 61 ft | 113 kts | 90° |
| 2026-05-05 04:50 | 25.06947 | 121.55750 | 50 ft | 145 kts | 94° |
| 2026-05-05 04:50 | 25.06878 | 121.56993 | 551 ft | 181 kts | 94° |
| 2026-05-05 04:51 | 25.06765 | 121.58639 | 1291 ft | 249 kts | 94° |
| 2026-05-05 04:51 | 24.97151 | 121.22456 | 1539 ft | 264 kts | 45° |
| 2026-05-05 04:51 | 24.97524 | 121.22882 | 4971 ft | 264 kts | 44° |
| 2026-05-05 04:51 | 24.98768 | 121.24304 | 4866 ft | 252 kts | 45° |
| 2026-05-05 04:52 | 24.99950 | 121.25680 | 4764 ft | 242 kts | 45° |
| 2026-05-05 04:52 | 25.01085 | 121.27002 | 4671 ft | 233 kts | 46° |
| 2026-05-05 04:52 | 25.02156 | 121.28252 | 4497 ft | 217 kts | 46° |
| 2026-05-05 04:52 | 25.03175 | 121.29441 | 4147 ft | 211 kts | 46° |
| 2026-05-05 04:53 | 25.04171 | 121.30605 | 3795 ft | 207 kts | 46° |
| 2026-05-05 04:53 | 25.05150 | 121.31748 | 3485 ft | 203 kts | 46° |
| 2026-05-05 04:53 | 25.06106 | 121.32862 | 3251 ft | 201 kts | 46° |
| 2026-05-05 04:53 | 25.07032 | 121.33976 | 3207 ft | 192 kts | 51° |
| 2026-05-05 04:54 | 25.07626 | 121.35251 | 3209 ft | 183 kts | 78° |
| 2026-05-05 04:54 | 25.07676 | 121.36584 | 3176 ft | 166 kts | 98° |
| 2026-05-05 04:54 | 25.07565 | 121.37830 | 2965 ft | 162 kts | 97° |
| 2026-05-05 04:54 | 25.07520 | 121.39054 | 2687 ft | 157 kts | 93° |
| 2026-05-05 04:55 | 25.07490 | 121.40221 | 2462 ft | 148 kts | 94° |
| 2026-05-05 04:55 | 25.07451 | 121.41318 | 2275 ft | 140 kts | 95° |
| 2026-05-05 04:55 | 25.07411 | 121.42379 | 2083 ft | 137 kts | 94° |
| 2026-05-05 04:55 | 25.07374 | 121.43433 | 1893 ft | 137 kts | 92° |
| 2026-05-05 04:56 | 25.07338 | 121.44477 | 1724 ft | 137 kts | 92° |
| 2026-05-05 04:56 | 25.07302 | 121.45503 | 1541 ft | 133 kts | 92° |
| 2026-05-05 04:56 | 25.07268 | 121.46494 | 1366 ft | 127 kts | 92° |
| 2026-05-05 04:56 | 25.07232 | 121.47467 | 1224 ft | 127 kts | 91° |
| 2026-05-05 04:57 | 25.07199 | 121.48457 | 1087 ft | 129 kts | 93° |
| 2026-05-05 04:57 | 25.07162 | 121.49469 | 854 ft | 132 kts | 91° |
| 2026-05-05 04:57 | 25.07129 | 121.50471 | 687 ft | 131 kts | 93° |
| 2026-05-05 04:57 | 25.07092 | 121.51477 | 496 ft | 131 kts | 92° |
| 2026-05-05 04:58 | 25.07058 | 121.52458 | 381 ft | 127 kts | 93° |
| 2026-05-05 04:58 | 25.07023 | 121.53460 | 200 ft | 124 kts | 94° |
| 2026-05-05 04:58 | 25.06982 | 121.54446 | 202 ft | 142 kts | 94° |
| 2026-05-05 04:58 | 25.06933 | 121.55535 | 36 ft | 139 kts | 94° |
| 2026-05-05 04:59 | 25.06925 | 121.56218 | 33 ft | 43 kts | 90° |
| 2026-05-05 04:59 | 25.06919 | 121.56431 | 33 ft | 12 kts | 93° |
| 2026-05-05 04:59 | 25.06895 | 121.56518 | 33 ft | 11 kts | 145° |
| 2026-05-05 04:59 | 25.06828 | 121.56505 | 33 ft | 10 kts | 232° |
| 2026-05-05 05:00 | 25.06816 | 121.56420 | 34 ft | 13 kts | 266° |
| 2026-05-05 05:00 | 25.06798 | 121.56306 | 34 ft | 17 kts | 256° |
| 2026-05-05 05:00 | 25.06764 | 121.56164 | 33 ft | 21 kts | 256° |
| 2026-05-05 05:00 | 25.06724 | 121.55994 | 33 ft | 25 kts | 255° |
| 2026-05-05 05:01 | 25.06678 | 121.55802 | 33 ft | 27 kts | 255° |
| 2026-05-05 05:01 | 25.06629 | 121.55592 | 33 ft | 29 kts | 256° |
| 2026-05-05 05:01 | 25.06581 | 121.55383 | 33 ft | 28 kts | 261° |
| 2026-05-05 05:01 | 25.06576 | 121.55159 | 33 ft | 30 kts | 269° |
| 2026-05-05 05:02 | 25.06575 | 121.55099 | 33 ft | 0 kts | 269° |
| 2026-05-05 05:02 | 25.06496 | 121.55287 | 33 ft | 3 kts | 178° |
| 2026-05-05 05:02 | 25.06487 | 121.55287 | 33 ft | 0 kts | 178° |